createdAt,value
2019-02-15T00:00:02.261Z,2.51
2019-02-15T00:01:02.205Z,2.39
2019-02-15T00:02:02.184Z,2.37
2019-02-15T00:03:02.186Z,2.46
2019-02-15T00:04:02.208Z,2.37
2019-02-15T00:05:02.198Z,2.36
2019-02-15T00:06:02.218Z,2.36
2019-02-15T00:07:02.137Z,2.28
2019-02-15T00:08:02.201Z,2.28
2019-02-15T00:09:02.144Z,2.26
2019-02-15T00:10:02.231Z,2.26
2019-02-15T00:11:02.112Z,2.30
2019-02-15T00:12:02.078Z,2.21
2019-02-15T00:13:02.103Z,2.22
2019-02-15T00:14:02.080Z,2.26
2019-02-15T00:15:02.071Z,2.23
2019-02-15T00:16:02.062Z,2.23
2019-02-15T00:17:02.038Z,2.18
2019-02-15T00:18:02.029Z,2.23
2019-02-15T00:19:02.020Z,2.14
2019-02-15T00:20:02.044Z,2.16
2019-02-15T00:21:02.034Z,2.19
2019-02-15T00:22:01.993Z,2.14
2019-02-15T00:23:01.987Z,2.18
2019-02-15T00:24:01.963Z,2.33
2019-02-15T00:25:01.955Z,2.22
2019-02-15T00:26:01.984Z,2.26
2019-02-15T00:27:01.934Z,2.26
2019-02-15T00:28:01.940Z,2.26
2019-02-15T00:29:01.930Z,2.23
2019-02-15T00:30:01.927Z,2.23
2019-02-15T00:31:01.926Z,2.18
2019-02-15T00:32:01.919Z,2.28
2019-02-15T00:33:01.882Z,2.18
2019-02-15T00:34:01.862Z,2.25
2019-02-15T00:35:01.856Z,2.30
2019-02-15T00:36:01.842Z,2.25
2019-02-15T00:37:01.895Z,2.26
2019-02-15T00:38:01.876Z,2.28
2019-02-15T00:39:01.833Z,2.25
2019-02-15T00:40:01.806Z,2.23
2019-02-15T00:41:01.805Z,2.30
2019-02-15T00:42:01.807Z,2.23
2019-02-15T00:43:01.782Z,2.21
2019-02-15T00:44:01.760Z,2.22
2019-02-15T00:45:01.761Z,2.26
2019-02-15T00:46:01.743Z,2.32
2019-02-15T00:47:01.729Z,2.18
2019-02-15T00:48:01.745Z,2.21
2019-02-15T00:49:01.705Z,2.25
2019-02-15T00:50:01.697Z,2.15
2019-02-15T00:51:01.686Z,2.10
2019-02-15T00:52:01.675Z,2.23
2019-02-15T00:53:01.727Z,2.12
2019-02-15T00:54:01.650Z,2.07
2019-02-15T00:55:01.697Z,2.04
2019-02-15T00:56:01.636Z,2.08
2019-02-15T00:57:01.630Z,2.08
2019-02-15T00:58:01.621Z,2.08
2019-02-15T00:59:01.635Z,2.14
2019-02-15T01:00:01.608Z,2.14
2019-02-15T01:01:01.614Z,2.12
2019-02-15T01:02:01.581Z,2.08
2019-02-15T01:03:01.559Z,2.14
2019-02-15T01:04:01.691Z,2.12
2019-02-15T01:05:01.546Z,2.19
2019-02-15T01:06:01.534Z,2.07
2019-02-15T01:07:01.532Z,2.04
2019-02-15T01:08:01.509Z,2.10
2019-02-15T01:09:01.686Z,2.12
2019-02-15T01:10:01.502Z,2.07
2019-02-15T01:11:01.492Z,2.05
2019-02-15T01:12:01.493Z,2.12
2019-02-15T01:13:01.455Z,1.93
2019-02-15T01:14:01.466Z,2.00
2019-02-15T01:15:01.461Z,1.98
2019-02-15T01:16:01.423Z,2.00
2019-02-15T01:17:01.448Z,1.89
2019-02-15T01:18:01.406Z,2.00
2019-02-15T01:19:01.395Z,1.86
2019-02-15T01:20:01.421Z,1.88
2019-02-15T01:21:01.377Z,1.88
2019-02-15T01:22:01.375Z,1.89
2019-02-15T01:23:01.368Z,1.88
2019-02-15T01:24:01.340Z,1.84
2019-02-15T01:25:01.373Z,1.84
2019-02-15T01:26:01.367Z,1.89
2019-02-15T01:27:01.337Z,1.89
2019-02-15T01:28:01.329Z,1.89
2019-02-15T01:29:01.293Z,1.92
2019-02-15T01:30:01.289Z,1.93
2019-02-15T01:31:01.277Z,1.98
2019-02-15T01:32:01.263Z,2.00
2019-02-15T01:33:01.252Z,1.84
2019-02-15T01:34:01.246Z,1.88
2019-02-15T01:35:01.220Z,1.89
2019-02-15T01:36:01.224Z,1.95
2019-02-15T01:37:01.223Z,2.00
2019-02-15T01:38:01.256Z,1.93
2019-02-15T01:39:01.197Z,1.84
2019-02-15T01:40:01.184Z,1.88
2019-02-15T01:41:01.215Z,1.95
2019-02-15T01:42:01.199Z,1.88
2019-02-15T01:43:01.146Z,1.88
2019-02-15T01:44:01.152Z,1.79
2019-02-15T01:45:01.140Z,1.85
2019-02-15T01:46:01.125Z,1.81
2019-02-15T01:47:01.150Z,1.79
2019-02-15T01:48:01.091Z,1.78
2019-02-15T01:49:01.105Z,1.81
2019-02-15T01:50:01.070Z,1.79
2019-02-15T01:51:01.094Z,1.85
2019-02-15T01:52:01.088Z,1.75
2019-02-15T01:53:01.118Z,1.76
2019-02-15T01:54:01.077Z,1.81
2019-02-15T01:55:01.049Z,1.78
2019-02-15T01:56:01.016Z,1.74
2019-02-15T01:57:01.027Z,1.79
2019-02-15T01:58:01.012Z,1.74
2019-02-15T01:59:01.023Z,1.82
2019-02-15T02:00:00.967Z,1.68
2019-02-15T02:01:00.960Z,1.71
2019-02-15T02:02:00.956Z,1.68
2019-02-15T02:03:00.958Z,1.74
2019-02-15T02:04:00.959Z,1.71
2019-02-15T02:05:00.988Z,1.78
2019-02-15T02:06:00.933Z,1.81
2019-02-15T02:07:00.902Z,1.74
2019-02-15T02:08:00.914Z,1.76
2019-02-15T02:09:00.887Z,1.68
2019-02-15T02:10:00.879Z,1.71
2019-02-15T02:11:00.885Z,1.67
2019-02-15T02:12:00.856Z,1.68
2019-02-15T02:13:00.847Z,1.75
2019-02-15T02:14:00.871Z,1.74
2019-02-15T02:15:09.573Z,1.82
2019-02-15T02:16:10.100Z,1.79
2019-02-15T02:17:00.806Z,1.75
2019-02-15T02:18:00.772Z,1.79
2019-02-15T02:19:00.767Z,1.75
2019-02-15T02:20:00.761Z,1.81
2019-02-15T02:21:00.754Z,1.78
2019-02-15T02:22:09.647Z,1.74
2019-02-15T02:23:10.184Z,1.76
2019-02-15T02:24:10.212Z,1.76
2019-02-15T02:25:00.714Z,1.81
2019-02-15T02:26:00.689Z,1.79
2019-02-15T02:27:00.699Z,1.81
2019-02-15T02:28:00.696Z,1.74
2019-02-15T02:29:00.665Z,1.76
2019-02-15T02:30:00.668Z,1.75
2019-02-15T02:31:00.678Z,1.81
2019-02-15T02:32:00.654Z,1.81
2019-02-15T02:33:00.641Z,1.89
2019-02-15T02:34:00.622Z,1.81
2019-02-15T02:35:00.598Z,1.86
2019-02-15T02:36:00.635Z,1.92
2019-02-15T02:37:00.588Z,1.86
2019-02-15T02:38:00.577Z,1.84
2019-02-15T02:39:00.558Z,1.92
2019-02-15T02:40:00.546Z,2.03
2019-02-15T02:41:00.539Z,2.08
2019-02-15T02:42:00.549Z,2.08
2019-02-15T02:43:00.531Z,2.10
2019-02-15T02:44:00.543Z,2.10
2019-02-15T02:45:00.507Z,2.01
2019-02-15T02:46:00.492Z,1.95
2019-02-15T02:47:00.480Z,1.92
2019-02-15T02:48:00.500Z,1.86
2019-02-15T02:49:00.468Z,1.88
2019-02-15T02:50:00.469Z,1.84
2019-02-15T02:51:00.447Z,1.82
2019-02-15T02:52:00.435Z,1.81
2019-02-15T02:53:00.431Z,1.70
2019-02-15T02:54:00.431Z,1.85
2019-02-15T02:55:00.479Z,1.82
2019-02-15T02:56:00.406Z,1.82
2019-02-15T02:57:00.388Z,1.82
2019-02-15T02:58:00.425Z,1.81
2019-02-15T02:59:00.359Z,1.74
2019-02-15T03:00:00.527Z,1.79
2019-02-15T03:01:00.347Z,1.74
2019-02-15T03:02:00.332Z,1.76
2019-02-15T03:03:00.324Z,1.78
2019-02-15T03:04:00.329Z,1.79
2019-02-15T03:05:00.481Z,1.78
2019-02-15T03:06:00.295Z,1.66
2019-02-15T03:07:00.287Z,1.67
2019-02-15T03:08:00.288Z,1.63
2019-02-15T03:09:00.307Z,1.63
2019-02-15T03:10:00.313Z,1.60
2019-02-15T03:11:00.242Z,1.67
2019-02-15T03:12:00.235Z,1.61
2019-02-15T03:13:00.207Z,1.61
2019-02-15T03:14:10.708Z,1.63
2019-02-15T03:15:01.218Z,1.58
2019-02-15T03:16:00.182Z,1.52
2019-02-15T03:17:00.172Z,1.49
2019-02-15T03:18:00.207Z,1.43
2019-02-15T03:19:00.171Z,1.52
2019-02-15T03:20:00.321Z,1.43
2019-02-15T03:21:00.142Z,1.42
2019-02-15T03:22:00.137Z,1.43
2019-02-15T03:23:00.132Z,1.45
2019-02-15T03:24:00.140Z,1.53
2019-02-15T03:25:00.287Z,1.39
2019-02-15T03:26:00.093Z,1.45
2019-02-15T03:27:00.093Z,1.45
2019-02-15T03:28:00.094Z,1.39
2019-02-15T03:29:00.080Z,1.45
2019-02-15T03:30:00.044Z,1.45
2019-02-15T03:31:00.056Z,1.46
2019-02-15T03:32:00.044Z,1.40
2019-02-15T03:33:00.034Z,1.39
2019-02-15T03:33:59.996Z,1.43
2019-02-15T03:34:59.995Z,1.39
2019-02-15T03:35:59.998Z,1.38
2019-02-15T03:37:00.005Z,1.38
2019-02-15T03:37:59.980Z,1.36
2019-02-15T03:38:59.947Z,1.39
2019-02-15T03:39:59.941Z,1.40
2019-02-15T03:40:59.966Z,1.36
2019-02-15T03:41:59.926Z,1.25
2019-02-15T03:42:59.912Z,1.28
2019-02-15T03:43:59.912Z,1.30
2019-02-15T03:44:59.891Z,1.30
2019-02-15T03:45:59.877Z,1.32
2019-02-15T03:46:59.861Z,1.30
2019-02-15T03:47:59.861Z,1.31
2019-02-15T03:48:59.860Z,1.31
2019-02-15T03:49:59.853Z,1.31
2019-02-15T03:50:59.837Z,1.27
2019-02-15T03:51:59.828Z,1.38
2019-02-15T03:52:59.832Z,1.36
2019-02-15T03:53:59.799Z,1.43
2019-02-15T03:54:59.800Z,1.38
2019-02-15T03:55:59.797Z,1.40
2019-02-15T03:56:59.765Z,1.45
2019-02-15T03:57:59.765Z,1.45
2019-02-15T03:58:59.759Z,1.56
2019-02-15T03:59:59.739Z,1.43
2019-02-15T04:00:59.726Z,1.48
2019-02-15T04:01:59.745Z,1.43
2019-02-15T04:02:59.728Z,1.42
2019-02-15T04:03:59.705Z,1.40
2019-02-15T04:04:59.689Z,1.40
2019-02-15T04:05:59.691Z,1.42
2019-02-15T04:06:59.672Z,1.48
2019-02-15T04:07:59.672Z,1.45
2019-02-15T04:08:59.641Z,1.43
2019-02-15T04:09:59.626Z,1.49
2019-02-15T04:10:59.642Z,1.38
2019-02-15T04:11:59.617Z,1.46
2019-02-15T04:12:59.604Z,1.45
2019-02-15T04:13:59.612Z,1.42
2019-02-15T04:14:59.587Z,1.39
2019-02-15T04:15:59.693Z,1.40
2019-02-15T04:16:59.551Z,1.45
2019-02-15T04:17:59.568Z,1.46
2019-02-15T04:18:59.553Z,1.46
2019-02-15T04:19:59.534Z,1.40
2019-02-15T04:20:59.529Z,1.45
2019-02-15T04:21:59.518Z,1.36
2019-02-15T04:22:59.514Z,1.32
2019-02-15T04:23:59.510Z,1.38
2019-02-15T04:24:59.481Z,1.21
2019-02-15T04:25:59.468Z,1.21
2019-02-15T04:26:59.468Z,1.16
2019-02-15T04:27:59.476Z,1.21
2019-02-15T04:28:59.478Z,1.16
2019-02-15T04:29:59.446Z,1.21
2019-02-15T04:30:59.422Z,1.18
2019-02-15T04:31:59.417Z,1.16
2019-02-15T04:32:59.405Z,1.14
2019-02-15T04:33:59.441Z,1.10
2019-02-15T04:34:59.376Z,1.10
2019-02-15T04:35:59.403Z,1.09
2019-02-15T04:36:59.375Z,1.07
2019-02-15T04:37:59.366Z,1.04
2019-02-15T04:38:59.342Z,1.12
2019-02-15T04:39:59.376Z,1.07
2019-02-15T04:40:59.310Z,1.04
2019-02-15T04:41:59.307Z,1.03
2019-02-15T04:42:59.297Z,1.00
2019-02-15T04:43:59.293Z,1.02
2019-02-15T04:44:59.278Z,1.03
2019-02-15T04:45:59.289Z,1.02
2019-02-15T04:46:59.274Z,0.96
2019-02-15T04:47:59.281Z,1.03
2019-02-15T04:48:59.269Z,0.96
2019-02-15T04:49:59.859Z,0.94
2019-02-15T04:51:00.894Z,0.94
2019-02-15T04:51:59.234Z,0.99
2019-02-15T04:52:59.206Z,0.96
2019-02-15T04:53:59.218Z,0.91
2019-02-15T04:54:59.210Z,0.89
2019-02-15T04:55:59.217Z,0.99
2019-02-15T04:56:59.176Z,0.99
2019-02-15T04:57:59.171Z,0.91
2019-02-15T04:58:59.176Z,1.00
2019-02-15T04:59:59.151Z,0.95
2019-02-15T05:00:59.157Z,0.99
2019-02-15T05:01:59.133Z,0.96
2019-02-15T05:02:59.102Z,1.06
2019-02-15T05:03:59.089Z,1.02
2019-02-15T05:04:59.118Z,1.06
2019-02-15T05:05:59.097Z,1.04
2019-02-15T05:06:59.118Z,1.03
2019-02-15T05:07:59.102Z,1.09
2019-02-15T05:08:59.051Z,1.04
2019-02-15T05:09:59.034Z,1.10
2019-02-15T05:10:59.014Z,1.07
2019-02-15T05:11:59.029Z,1.04
2019-02-15T05:12:59.037Z,1.02
2019-02-15T05:13:58.990Z,1.10
2019-02-15T05:14:59.001Z,0.96
2019-02-15T05:15:58.974Z,1.02
2019-02-15T05:16:59.051Z,1.02
2019-02-15T05:17:58.960Z,1.03
2019-02-15T05:18:58.943Z,1.03
2019-02-15T05:19:58.939Z,1.00
2019-02-15T05:20:58.975Z,0.96
2019-02-15T05:21:58.922Z,0.95
2019-02-15T05:22:58.921Z,0.94
2019-02-15T05:23:58.897Z,0.94
2019-02-15T05:24:58.895Z,0.88
2019-02-15T05:25:58.904Z,0.89
2019-02-15T05:26:58.856Z,0.77
2019-02-15T05:27:58.879Z,0.86
2019-02-15T05:28:58.846Z,0.74
2019-02-15T05:29:58.825Z,0.78
2019-02-15T05:30:58.816Z,0.78
2019-02-15T05:31:58.835Z,0.77
2019-02-15T05:32:58.835Z,0.68
2019-02-15T05:33:58.779Z,0.73
2019-02-15T05:34:58.804Z,0.64
2019-02-15T05:35:58.819Z,0.64
2019-02-15T05:37:06.342Z,0.66
2019-02-15T05:37:58.737Z,0.68
2019-02-15T05:38:58.741Z,0.70
2019-02-15T05:39:58.744Z,0.67
2019-02-15T05:40:58.877Z,0.67
2019-02-15T05:41:58.794Z,0.64
2019-02-15T05:42:58.710Z,0.51
2019-02-15T05:43:58.708Z,0.55
2019-02-15T05:45:03.529Z,0.52
2019-02-15T05:45:59.672Z,0.52
2019-02-15T05:46:58.663Z,0.48
2019-02-15T05:47:58.696Z,0.51
2019-02-15T05:48:58.638Z,0.45
2019-02-15T05:49:58.670Z,0.39
2019-02-15T05:50:58.720Z,0.45
2019-02-15T05:51:58.641Z,0.42
2019-02-15T05:52:58.643Z,0.49
2019-02-15T05:53:58.718Z,0.52
2019-02-15T05:54:58.599Z,0.39
2019-02-15T05:55:58.649Z,0.47
2019-02-15T05:56:58.571Z,0.39
2019-02-15T05:57:58.575Z,0.40
2019-02-15T05:58:58.584Z,0.42
2019-02-15T05:59:58.553Z,0.42
2019-02-15T06:00:58.627Z,0.31
2019-02-15T06:01:58.630Z,0.40
2019-02-15T06:02:58.553Z,0.37
2019-02-15T06:03:58.735Z,0.27
2019-02-15T06:04:58.659Z,0.29
2019-02-15T06:05:58.576Z,0.39
2019-02-15T06:06:58.481Z,0.33
2019-02-15T06:07:58.590Z,0.24
2019-02-15T06:08:58.499Z,0.40
2019-02-15T06:09:58.486Z,0.30
2019-02-15T06:11:06.433Z,0.31
2019-02-15T06:11:59.559Z,0.31
2019-02-15T06:12:58.477Z,0.27
2019-02-15T06:13:58.428Z,0.29
2019-02-15T06:14:58.443Z,0.29
2019-02-15T06:15:58.386Z,0.31
2019-02-15T06:16:58.367Z,0.36
2019-02-15T06:17:58.533Z,0.29
2019-02-15T06:18:58.391Z,0.30
2019-02-15T06:19:58.404Z,0.31
2019-02-15T06:20:58.364Z,0.31
2019-02-15T06:21:58.418Z,0.29
2019-02-15T06:22:58.328Z,0.30
2019-02-15T06:23:58.307Z,0.33
2019-02-15T06:24:58.291Z,0.42
2019-02-15T06:25:58.444Z,0.36
2019-02-15T06:26:58.258Z,0.39
2019-02-15T06:27:58.316Z,0.37
2019-02-15T06:28:58.411Z,0.40
2019-02-15T06:29:58.810Z,0.47
2019-02-15T06:30:58.279Z,0.42
2019-02-15T06:31:58.272Z,0.48
2019-02-15T06:32:59.719Z,0.56
2019-02-15T06:33:58.280Z,0.48
2019-02-15T06:35:00.902Z,0.40
2019-02-15T06:35:58.212Z,0.42
2019-02-15T06:36:58.143Z,0.44
2019-02-15T06:37:58.306Z,0.51
2019-02-15T06:38:58.300Z,0.47
2019-02-15T06:39:58.185Z,0.47
2019-02-15T06:40:58.306Z,0.44
2019-02-15T06:41:58.181Z,0.47
2019-02-15T06:42:58.711Z,0.52
2019-02-15T06:43:58.092Z,0.52
2019-02-15T06:44:58.116Z,0.56
2019-02-15T06:45:59.041Z,0.56
2019-02-15T06:46:58.716Z,0.61
2019-02-15T06:48:01.805Z,0.61
2019-02-15T06:49:02.263Z,0.64
2019-02-15T06:50:02.473Z,0.58
2019-02-15T06:50:58.008Z,0.61
2019-02-15T06:51:58.079Z,0.67
2019-02-15T06:52:58.042Z,0.56
2019-02-15T06:53:58.034Z,0.58
2019-02-15T06:54:58.054Z,0.74
2019-02-15T06:55:57.976Z,0.74
2019-02-15T06:57:01.368Z,0.84
2019-02-15T06:58:00.707Z,0.86
2019-02-15T06:59:00.822Z,0.95
2019-02-15T06:59:59.302Z,0.95
2019-02-15T07:00:57.929Z,0.99
2019-02-15T07:01:57.888Z,0.95
2019-02-15T07:02:57.902Z,1.12
2019-02-15T07:03:57.921Z,1.03
2019-02-15T07:04:57.869Z,1.04
2019-02-15T07:05:57.884Z,1.07
2019-02-15T07:06:57.894Z,1.09
2019-02-15T07:07:57.938Z,1.14
2019-02-15T07:08:57.911Z,1.14
2019-02-15T07:09:57.832Z,1.25
2019-02-15T07:10:57.891Z,1.24
2019-02-15T07:11:57.884Z,1.30
2019-02-15T07:12:58.707Z,1.32
2019-02-15T07:13:57.850Z,1.34
2019-02-15T07:14:57.843Z,1.40
2019-02-15T07:15:57.877Z,1.45
2019-02-15T07:16:57.835Z,1.48
2019-02-15T07:17:57.917Z,1.45
2019-02-15T07:18:57.778Z,1.50
2019-02-15T07:19:57.721Z,1.56
2019-02-15T07:20:57.763Z,1.63
2019-02-15T07:21:57.683Z,1.60
2019-02-15T07:22:57.691Z,1.67
2019-02-15T07:23:57.683Z,1.61
2019-02-15T07:24:57.709Z,1.64
2019-02-15T07:25:57.687Z,1.71
2019-02-15T07:26:57.624Z,1.75
2019-02-15T07:27:57.647Z,1.74
2019-02-15T07:28:57.611Z,1.81
2019-02-15T07:29:58.714Z,1.89
2019-02-15T07:30:57.650Z,1.92
2019-02-15T07:31:57.579Z,1.86
2019-02-15T07:32:57.611Z,2.01
2019-02-15T07:33:57.555Z,2.01
2019-02-15T07:34:57.607Z,2.10
2019-02-15T07:35:57.569Z,2.05
2019-02-15T07:36:57.538Z,2.07
2019-02-15T07:37:57.584Z,2.16
2019-02-15T07:38:57.808Z,2.14
2019-02-15T07:39:57.530Z,2.08
2019-02-15T07:40:57.497Z,2.23
2019-02-15T07:41:57.479Z,2.23
2019-02-15T07:42:57.591Z,2.25
2019-02-15T07:43:57.475Z,2.26
2019-02-15T07:44:57.471Z,2.32
2019-02-15T07:45:57.450Z,2.40
2019-02-15T07:46:57.525Z,2.36
2019-02-15T07:47:58.625Z,2.47
2019-02-15T07:48:57.446Z,2.62
2019-02-15T07:49:57.453Z,2.64
2019-02-15T07:50:57.881Z,2.70
2019-02-15T07:51:57.375Z,2.75
2019-02-15T07:52:57.391Z,2.77
2019-02-15T07:53:57.432Z,2.72
2019-02-15T07:54:57.714Z,2.87
2019-02-15T07:55:57.371Z,2.95
2019-02-15T07:56:57.379Z,3.01
2019-02-15T07:57:58.214Z,3.03
2019-02-15T07:58:57.307Z,3.01
2019-02-15T07:59:57.316Z,3.16
2019-02-15T08:00:57.338Z,3.16
2019-02-15T08:02:01.781Z,3.37
2019-02-15T08:02:57.297Z,3.26
2019-02-15T08:03:57.346Z,3.37
2019-02-15T08:04:57.349Z,3.46
2019-02-15T08:05:57.311Z,3.52
2019-02-15T08:06:57.320Z,3.58
2019-02-15T08:07:57.240Z,3.66
2019-02-15T08:08:57.193Z,3.73
2019-02-15T08:09:57.261Z,3.74
2019-02-15T08:10:57.280Z,3.84
2019-02-15T08:11:57.258Z,3.88
2019-02-15T08:12:57.252Z,3.89
2019-02-15T08:13:57.277Z,3.92
2019-02-15T08:14:57.183Z,4.02
2019-02-15T08:15:57.118Z,4.03
2019-02-15T08:16:57.223Z,4.02
2019-02-15T08:17:57.716Z,4.13
2019-02-15T08:18:57.360Z,4.12
2019-02-15T08:19:57.097Z,4.24
2019-02-15T08:20:57.072Z,4.24
2019-02-15T08:21:57.238Z,4.30
2019-02-15T08:22:57.234Z,4.39
2019-02-15T08:23:57.140Z,4.42
2019-02-15T08:24:57.090Z,4.48
2019-02-15T08:25:57.036Z,4.52
2019-02-15T08:26:57.009Z,4.66
2019-02-15T08:27:57.012Z,4.68
2019-02-15T08:28:57.015Z,4.79
2019-02-15T08:29:57.011Z,4.76
2019-02-15T08:30:56.987Z,4.97
2019-02-15T08:31:56.996Z,4.95
2019-02-15T08:32:57.013Z,5.05
2019-02-15T08:33:56.991Z,5.20
2019-02-15T08:34:56.986Z,5.22
2019-02-15T08:35:56.972Z,5.19
2019-02-15T08:36:56.959Z,5.34
2019-02-15T08:37:56.954Z,5.29
2019-02-15T08:38:56.881Z,5.33
2019-02-15T08:39:56.887Z,5.41
2019-02-15T08:40:56.878Z,5.47
2019-02-15T08:42:01.359Z,5.58
2019-02-15T08:42:57.881Z,5.65
2019-02-15T08:43:57.498Z,5.70
2019-02-15T08:44:56.867Z,5.69
2019-02-15T08:46:01.600Z,5.77
2019-02-15T08:46:57.861Z,5.87
2019-02-15T08:47:56.794Z,5.90
2019-02-15T08:48:56.821Z,5.90
2019-02-15T08:49:56.908Z,5.98
2019-02-15T08:50:56.804Z,5.91
2019-02-15T08:51:56.940Z,6.05
2019-02-15T08:52:56.836Z,6.20
2019-02-15T08:53:56.772Z,6.22
2019-02-15T08:54:56.775Z,6.38
2019-02-15T08:55:56.716Z,6.36
2019-02-15T08:56:56.706Z,6.41
2019-02-15T08:57:56.749Z,6.49
2019-02-15T08:58:56.832Z,6.53
2019-02-15T08:59:56.706Z,6.54
2019-02-15T09:00:56.723Z,6.64
2019-02-15T09:01:56.660Z,6.67
2019-02-15T09:02:56.621Z,6.71
2019-02-15T09:03:56.655Z,6.80
2019-02-15T09:04:56.642Z,6.80
2019-02-15T09:05:56.629Z,6.87
2019-02-15T09:06:56.622Z,6.85
2019-02-15T09:07:56.617Z,6.95
2019-02-15T09:08:56.586Z,6.90
2019-02-15T09:09:56.599Z,6.90
2019-02-15T09:10:56.602Z,6.90
2019-02-15T09:11:56.609Z,7.08
2019-02-15T09:12:56.584Z,7.28
2019-02-15T09:13:56.525Z,7.23
2019-02-15T09:14:56.587Z,7.29
2019-02-15T09:15:56.524Z,7.39
2019-02-15T09:16:56.545Z,7.47
2019-02-15T09:17:56.495Z,7.53
2019-02-15T09:18:56.544Z,7.51
2019-02-15T09:19:56.465Z,7.61
2019-02-15T09:20:56.462Z,7.69
2019-02-15T09:21:56.470Z,7.59
2019-02-15T09:22:56.448Z,7.66
2019-02-15T09:23:56.427Z,7.69
2019-02-15T09:24:56.445Z,7.69
2019-02-15T09:25:56.401Z,7.81
2019-02-15T09:26:56.409Z,7.85
2019-02-15T09:27:56.368Z,7.91
2019-02-15T09:28:57.226Z,7.93
2019-02-15T09:29:56.391Z,7.96
2019-02-15T09:30:56.373Z,8.06
2019-02-15T09:31:56.328Z,8.06
2019-02-15T09:32:56.378Z,8.09
2019-02-15T09:33:56.333Z,8.02
2019-02-15T09:34:56.309Z,8.21
2019-02-15T09:35:56.328Z,8.32
2019-02-15T09:36:56.256Z,8.34
2019-02-15T09:37:56.333Z,8.28
2019-02-15T09:38:56.257Z,8.35
2019-02-15T09:39:56.338Z,8.34
2019-02-15T09:40:56.260Z,8.35
2019-02-15T09:41:56.252Z,8.41
2019-02-15T09:42:56.236Z,8.49
2019-02-15T09:43:56.245Z,8.56
2019-02-15T09:44:56.394Z,8.57
2019-02-15T09:45:56.228Z,8.64
2019-02-15T09:46:56.201Z,8.69
2019-02-15T09:47:56.264Z,8.74
2019-02-15T09:48:56.178Z,8.71
2019-02-15T09:49:56.210Z,8.87
2019-02-15T09:50:56.157Z,8.97
2019-02-15T09:51:56.142Z,8.97
2019-02-15T09:52:56.127Z,8.96
2019-02-15T09:53:56.169Z,9.05
2019-02-15T09:54:56.148Z,9.11
2019-02-15T09:55:56.127Z,9.13
2019-02-15T09:56:56.142Z,9.13
2019-02-15T09:57:56.063Z,9.16
2019-02-15T09:58:56.080Z,9.15
2019-02-15T09:59:56.084Z,9.26
2019-02-15T10:00:56.095Z,9.34
2019-02-15T10:01:56.037Z,9.33
2019-02-15T10:02:56.064Z,9.48
2019-02-15T10:03:56.045Z,9.45
2019-02-15T10:04:56.025Z,9.45
2019-02-15T10:05:55.999Z,9.48
2019-02-15T10:06:56.732Z,9.69
2019-02-15T10:07:55.981Z,9.58
2019-02-15T10:08:55.969Z,9.62
2019-02-15T10:09:55.924Z,9.62
2019-02-15T10:10:55.987Z,9.64
2019-02-15T10:11:55.926Z,9.70
2019-02-15T10:12:55.930Z,9.69
2019-02-15T10:13:55.909Z,9.66
2019-02-15T10:14:55.892Z,9.76
2019-02-15T10:15:55.913Z,9.88
2019-02-15T10:16:55.908Z,9.95
2019-02-15T10:17:55.846Z,9.90
2019-02-15T10:18:55.846Z,9.99
2019-02-15T10:19:55.824Z,10.03
2019-02-15T10:20:55.858Z,10.02
2019-02-15T10:21:55.810Z,10.05
2019-02-15T10:22:55.805Z,10.15
2019-02-15T10:23:55.792Z,10.18
2019-02-15T10:24:55.787Z,10.13
2019-02-15T10:25:55.767Z,10.21
2019-02-15T10:26:55.836Z,10.27
2019-02-15T10:27:55.762Z,10.30
2019-02-15T10:28:55.747Z,10.25
2019-02-15T10:29:55.769Z,10.23
2019-02-15T10:30:55.707Z,10.38
2019-02-15T10:31:55.725Z,10.33
2019-02-15T10:32:55.733Z,10.25
2019-02-15T10:33:55.695Z,10.30
2019-02-15T10:34:55.698Z,10.49
2019-02-15T10:35:55.745Z,10.62
2019-02-15T10:36:55.674Z,10.61
2019-02-15T10:37:55.719Z,10.65
2019-02-15T10:38:55.661Z,10.62
2019-02-15T10:39:55.642Z,10.64
2019-02-15T10:40:55.595Z,10.77
2019-02-15T10:41:55.628Z,10.80
2019-02-15T10:42:55.599Z,10.82
2019-02-15T10:43:55.604Z,10.89
2019-02-15T10:44:55.561Z,10.86
2019-02-15T10:45:55.551Z,10.94
2019-02-15T10:46:55.533Z,11.02
2019-02-15T10:47:55.523Z,11.01
2019-02-15T10:48:55.547Z,11.07
2019-02-15T10:49:55.526Z,11.12
2019-02-15T10:50:55.501Z,11.12
2019-02-15T10:51:55.490Z,11.22
2019-02-15T10:52:55.476Z,11.18
2019-02-15T10:53:55.473Z,11.05
2019-02-15T10:54:55.502Z,11.12
2019-02-15T10:55:55.436Z,11.20
2019-02-15T10:56:55.457Z,11.25
2019-02-15T10:57:55.444Z,11.30
2019-02-15T10:58:55.407Z,11.25
2019-02-15T10:59:55.451Z,11.31
2019-02-15T11:00:55.458Z,11.41
2019-02-15T11:01:55.421Z,11.34
2019-02-15T11:02:55.374Z,11.33
2019-02-15T11:03:55.349Z,11.33
2019-02-15T11:04:55.381Z,11.34
2019-02-15T11:05:55.345Z,11.48
2019-02-15T11:06:55.341Z,11.44
2019-02-15T11:07:55.314Z,11.51
2019-02-15T11:08:55.355Z,11.48
2019-02-15T11:09:55.349Z,11.41
2019-02-15T11:10:55.318Z,11.44
2019-02-15T11:11:55.317Z,11.44
2019-02-15T11:12:55.331Z,11.52
2019-02-15T11:13:55.245Z,11.58
2019-02-15T11:14:55.246Z,11.58
2019-02-15T11:15:55.293Z,11.59
2019-02-15T11:16:55.207Z,11.48
2019-02-15T11:17:55.204Z,11.51
2019-02-15T11:18:55.195Z,11.48
2019-02-15T11:19:55.220Z,11.58
2019-02-15T11:20:55.191Z,11.49
2019-02-15T11:21:55.245Z,11.53
2019-02-15T11:22:55.170Z,11.62
2019-02-15T11:23:55.149Z,11.62
2019-02-15T11:24:55.155Z,11.70
2019-02-15T11:25:55.752Z,11.78
2019-02-15T11:26:55.103Z,11.78
2019-02-15T11:27:55.131Z,11.83
2019-02-15T11:28:55.086Z,11.65
2019-02-15T11:29:55.084Z,11.78
2019-02-15T11:30:55.132Z,11.74
2019-02-15T11:31:55.085Z,11.74
2019-02-15T11:32:55.059Z,11.81
2019-02-15T11:33:55.073Z,11.89
2019-02-15T11:34:55.018Z,11.88
2019-02-15T11:35:55.086Z,11.85
2019-02-15T11:37:03.982Z,11.85
2019-02-15T11:37:55.042Z,11.93
2019-02-15T11:38:55.018Z,11.99
2019-02-15T11:39:55.105Z,12.02
2019-02-15T11:40:54.997Z,11.97
2019-02-15T11:41:55.140Z,11.91
2019-02-15T11:42:55.086Z,11.85
2019-02-15T11:43:55.131Z,12.00
2019-02-15T11:44:54.962Z,11.93
2019-02-15T11:45:54.990Z,12.02
2019-02-15T11:46:56.857Z,12.11
2019-02-15T11:47:55.902Z,12.10
2019-02-15T11:48:55.799Z,12.12
2019-02-15T11:49:56.785Z,12.15
2019-02-15T11:50:55.942Z,12.18
2019-02-15T11:51:54.872Z,12.15
2019-02-15T11:52:56.291Z,12.30
2019-02-15T11:53:55.018Z,12.23
2019-02-15T11:54:54.925Z,12.29
2019-02-15T11:55:54.888Z,12.33
2019-02-15T11:56:55.423Z,12.33
2019-02-15T11:57:55.786Z,12.35
2019-02-15T11:58:56.690Z,12.35
2019-02-15T11:59:55.462Z,12.30
2019-02-15T12:00:54.782Z,12.30
2019-02-15T12:01:55.519Z,12.30
2019-02-15T12:02:55.432Z,12.36
2019-02-15T12:03:54.961Z,12.35
2019-02-15T12:04:54.828Z,12.33
2019-02-15T12:05:55.288Z,12.32
2019-02-15T12:06:54.725Z,12.32
2019-02-15T12:07:54.720Z,12.30
2019-02-15T12:08:54.660Z,12.37
2019-02-15T12:09:54.680Z,12.35
2019-02-15T12:10:54.636Z,12.37
2019-02-15T12:11:54.636Z,12.30
2019-02-15T12:12:54.625Z,12.40
2019-02-15T12:13:54.605Z,12.37
2019-02-15T12:14:54.624Z,12.39
2019-02-15T12:15:54.580Z,12.50
2019-02-15T12:16:54.613Z,12.39
2019-02-15T12:17:54.557Z,12.40
2019-02-15T12:18:54.759Z,12.57
2019-02-15T12:19:54.658Z,12.48
2019-02-15T12:20:54.552Z,12.44
2019-02-15T12:21:54.549Z,12.63
2019-02-15T12:22:54.544Z,12.62
2019-02-15T12:23:54.659Z,12.65
2019-02-15T12:24:54.526Z,12.69
2019-02-15T12:25:54.540Z,12.75
2019-02-15T12:26:54.594Z,12.68
2019-02-15T12:27:55.589Z,12.65
2019-02-15T12:28:56.295Z,12.69
2019-02-15T12:29:55.387Z,12.65
2019-02-15T12:30:57.409Z,12.78
2019-02-15T12:31:54.480Z,12.76
2019-02-15T12:32:54.427Z,12.76
2019-02-15T12:33:54.400Z,12.80
2019-02-15T12:34:54.392Z,12.81
2019-02-15T12:35:54.397Z,12.73
2019-02-15T12:36:54.391Z,12.75
2019-02-15T12:37:54.390Z,12.88
2019-02-15T12:38:54.341Z,12.87
2019-02-15T12:39:54.448Z,12.78
2019-02-15T12:40:54.345Z,12.72
2019-02-15T12:41:54.348Z,12.80
2019-02-15T12:42:54.295Z,12.78
2019-02-15T12:43:54.330Z,12.76
2019-02-15T12:44:54.276Z,12.86
2019-02-15T12:45:54.299Z,12.86
2019-02-15T12:46:54.286Z,12.91
2019-02-15T12:47:54.261Z,12.91
2019-02-15T12:48:54.226Z,12.94
2019-02-15T12:49:55.727Z,13.01
2019-02-15T12:50:54.264Z,12.93
2019-02-15T12:51:54.249Z,12.87
2019-02-15T12:52:54.201Z,12.95
2019-02-15T12:53:54.244Z,12.95
2019-02-15T12:54:54.253Z,12.95
2019-02-15T12:55:54.166Z,13.02
2019-02-15T12:56:54.159Z,13.05
2019-02-15T12:57:54.188Z,13.02
2019-02-15T12:58:54.205Z,13.08
2019-02-15T12:59:54.217Z,13.23
2019-02-15T13:00:54.092Z,13.50
2019-02-15T13:01:54.105Z,14.22
2019-02-15T13:02:54.114Z,15.05
2019-02-15T13:03:54.113Z,15.70
2019-02-15T13:04:54.096Z,16.17
2019-02-15T13:05:54.054Z,16.72
2019-02-15T13:06:54.080Z,17.27
2019-02-15T13:07:54.163Z,17.53
2019-02-15T13:08:54.092Z,17.95
2019-02-15T13:09:54.018Z,18.08
2019-02-15T13:10:54.013Z,18.37
2019-02-15T13:11:54.039Z,18.67